Taylor, Alabama
Current Conditions -  °F | °C
As of 5:53 AM on Wednesday 28 Jan 2015 (Local Time) from KDHN Reporting Station
Clear Clear  
Wind Chill: 29°   Ceiling: Unl
Heat Index: 33°   Visibility: 10mi
Dew Point: 30°   Wind: 5mph
Humidity: 89%   Direction: 330°NNW
Pressure: 30.25"   Gusts: NA
Location:  31.2302°N, 85.4698°W
Report Text: KDHN 281153Z 33004KT 10SM CLR 01/M01 A3025 RMK AO2 SLP244 T00061011 10050 20006 53017
Loading
Personal Weather Stations






























Interactive Weather Map New forecast layout! Learn more

10-Day Weather Forecast

Advertisements
Track Severe Weather on mobile